createdAt,value
2023-02-11T00:01:56.543Z,7.67
2023-02-11T00:04:45.108Z,8.50
2023-02-11T00:07:32.512Z,6.67
2023-02-11T00:10:19.281Z,7.33
2023-02-11T00:13:05.979Z,7.10
2023-02-11T00:15:54.714Z,6.77
2023-02-11T00:18:41.869Z,7.07
2023-02-11T00:21:29.661Z,6.10
2023-02-11T00:24:16.331Z,5.53
2023-02-11T00:27:03.334Z,5.27
2023-02-11T00:29:50.033Z,6.27
2023-02-11T00:32:38.647Z,6.00
2023-02-11T00:35:25.514Z,5.77
2023-02-11T00:38:12.099Z,5.67
2023-02-11T00:40:58.896Z,5.33
2023-02-11T00:43:46.255Z,7.03
2023-02-11T00:46:33.543Z,9.07
2023-02-11T00:49:21.782Z,11.83
2023-02-11T00:52:08.960Z,6.13
2023-02-11T00:54:55.828Z,5.47
2023-02-11T00:57:42.851Z,4.17
2023-02-11T01:00:30.594Z,5.73
2023-02-11T01:03:17.833Z,3.77
2023-02-11T01:06:06.506Z,4.30
2023-02-11T01:08:53.415Z,4.00
2023-02-11T01:11:40.212Z,5.17
2023-02-11T01:14:26.988Z,3.77
2023-02-11T01:17:14.225Z,4.60
2023-02-11T01:20:04.125Z,5.13
2023-02-11T01:22:52.632Z,4.10
2023-02-11T01:25:39.820Z,3.87
2023-02-11T01:28:28.658Z,4.07
2023-02-11T01:31:16.422Z,3.60
2023-02-11T01:34:03.324Z,3.53
2023-02-11T01:36:50.366Z,3.27
2023-02-11T01:39:38.774Z,3.50
2023-02-11T01:42:25.798Z,3.90
2023-02-11T01:45:53.940Z,3.10
2023-02-11T01:48:44.560Z,3.70
2023-02-11T01:51:35.048Z,3.80
2023-02-11T01:54:42.792Z,4.43
2023-02-11T01:57:34.880Z,3.87
2023-02-11T02:00:25.658Z,3.10
2023-02-11T02:03:17.072Z,4.40
2023-02-11T02:06:09.074Z,4.23
2023-02-11T02:09:00.992Z,3.47
2023-02-11T02:11:48.033Z,3.67
2023-02-11T02:14:39.946Z,3.80
2023-02-11T02:17:38.850Z,3.80
2023-02-11T02:21:01.299Z,3.67
2023-02-11T02:24:16.370Z,3.70
2023-02-11T02:27:27.163Z,4.10
2023-02-11T02:30:54.363Z,2.93
2023-02-11T02:33:50.738Z,4.47
2023-02-11T02:36:44.029Z,3.17
2023-02-11T02:39:34.980Z,3.27
2023-02-11T02:42:23.507Z,3.93
2023-02-11T02:45:12.168Z,3.57
2023-02-11T02:47:58.956Z,3.27
2023-02-11T02:50:47.845Z,2.60
2023-02-11T02:53:50.203Z,4.57
2023-02-11T02:56:46.142Z,3.10
2023-02-11T02:59:44.777Z,3.43
2023-02-11T03:02:36.828Z,2.50
2023-02-11T03:05:31.077Z,3.00
2023-02-11T03:08:26.785Z,3.17
2023-02-11T03:11:16.860Z,3.73
2023-02-11T03:14:05.979Z,3.70
2023-02-11T03:16:56.017Z,4.40
2023-02-11T03:19:45.203Z,4.17
2023-02-11T03:22:38.786Z,3.67
2023-02-11T03:25:34.667Z,2.77
2023-02-11T03:28:29.743Z,3.70
2023-02-11T03:31:23.264Z,3.67
2023-02-11T03:34:18.356Z,3.80
2023-02-11T03:37:11.184Z,3.60
2023-02-11T03:40:03.687Z,2.67
2023-02-11T03:42:55.839Z,3.47
2023-02-11T03:45:42.989Z,1.77
2023-02-11T03:48:34.198Z,1.97
2023-02-11T03:51:24.521Z,2.17
2023-02-11T03:54:15.920Z,2.23
2023-02-11T03:57:03.965Z,2.03
2023-02-11T03:59:57.198Z,2.37
2023-02-11T04:02:45.180Z,2.50
2023-02-11T04:05:32.244Z,3.07
2023-02-11T04:08:19.297Z,2.57
2023-02-11T04:11:06.668Z,2.57
2023-02-11T04:13:53.717Z,3.63
2023-02-11T04:16:42.310Z,2.93
2023-02-11T04:19:29.488Z,2.80
2023-02-11T04:22:16.424Z,2.57
2023-02-11T04:25:03.127Z,2.37
2023-02-11T04:27:49.832Z,2.37
2023-02-11T04:30:36.967Z,1.63
2023-02-11T04:33:26.134Z,2.33
2023-02-11T04:36:12.935Z,2.20
2023-02-11T04:38:59.963Z,2.20
2023-02-11T04:41:47.145Z,2.07
2023-02-11T04:44:34.307Z,3.07
2023-02-11T04:47:20.877Z,2.83
2023-02-11T04:50:09.511Z,2.87
2023-02-11T04:52:56.500Z,2.73
2023-02-11T04:55:43.037Z,2.60
2023-02-11T04:58:30.044Z,2.00
2023-02-11T05:01:17.676Z,2.93
2023-02-11T05:04:04.706Z,1.80
2023-02-11T05:06:53.278Z,3.27
2023-02-11T05:09:41.769Z,3.70
2023-02-11T05:12:28.641Z,2.43
2023-02-11T05:15:15.397Z,2.53
2023-02-11T05:18:02.203Z,1.70
2023-02-11T05:20:49.586Z,3.03
2023-02-11T05:23:38.242Z,3.67
2023-02-11T05:26:25.361Z,3.73
2023-02-11T05:29:12.378Z,2.23
2023-02-11T05:32:00.843Z,2.60
2023-02-11T05:34:47.787Z,3.13
2023-02-11T05:37:34.905Z,2.73
2023-02-11T05:40:23.348Z,1.70
2023-02-11T05:43:09.991Z,2.57
2023-02-11T05:45:57.166Z,2.43
2023-02-11T05:48:44.148Z,2.17
2023-02-11T05:51:31.275Z,2.50
2023-02-11T05:54:18.227Z,1.70
2023-02-11T05:57:06.675Z,1.93
2023-02-11T05:59:53.591Z,1.33
2023-02-11T06:02:41.280Z,2.10
2023-02-11T06:05:28.174Z,2.40
2023-02-11T06:08:15.100Z,2.50
2023-02-11T06:11:01.897Z,1.90
2023-02-11T06:13:50.648Z,1.47
2023-02-11T06:16:37.707Z,1.90
2023-02-11T06:19:24.514Z,2.33
2023-02-11T06:22:11.489Z,2.00
2023-02-11T06:25:01.768Z,2.17
2023-02-11T06:27:49.084Z,1.50
2023-02-11T06:30:37.714Z,1.80
2023-02-11T06:33:24.694Z,1.40
2023-02-11T06:36:17.003Z,1.47
2023-02-11T06:39:04.582Z,1.53
2023-02-11T06:41:51.605Z,1.30
2023-02-11T06:44:38.871Z,0.87
2023-02-11T06:47:27.651Z,2.57
2023-02-11T06:50:16.144Z,2.23
2023-02-11T06:53:03.031Z,1.90
2023-02-11T06:55:50.700Z,2.23
2023-02-11T06:58:37.894Z,2.60
2023-02-11T07:01:26.175Z,2.30
2023-02-11T07:04:15.698Z,1.37
2023-02-11T07:07:02.746Z,1.67
2023-02-11T07:09:49.673Z,2.73
2023-02-11T07:12:36.724Z,2.57
2023-02-11T07:15:23.618Z,3.50
2023-02-11T07:18:11.962Z,2.83
2023-02-11T07:21:04.904Z,2.20
2023-02-11T07:23:51.819Z,1.33
2023-02-11T07:26:38.603Z,1.37
2023-02-11T07:29:25.913Z,2.33
2023-02-11T07:32:12.971Z,1.50
2023-02-11T07:35:00.085Z,2.13
2023-02-11T07:37:48.345Z,2.67
2023-02-11T07:40:35.161Z,2.77
2023-02-11T07:43:21.750Z,2.30
2023-02-11T07:46:11.214Z,1.37
2023-02-11T07:48:57.855Z,2.43
2023-02-11T07:51:45.962Z,2.00
2023-02-11T07:54:34.415Z,1.80
2023-02-11T07:57:21.319Z,1.70
2023-02-11T08:00:09.122Z,1.80
2023-02-11T08:02:58.570Z,2.10
2023-02-11T08:05:45.413Z,2.80
2023-02-11T08:08:32.106Z,2.20
2023-02-11T08:11:22.443Z,2.20
2023-02-11T08:14:09.857Z,2.63
2023-02-11T08:16:56.766Z,2.03
2023-02-11T08:19:44.022Z,2.77
2023-02-11T08:22:32.864Z,2.73
2023-02-11T08:25:19.693Z,2.30
2023-02-11T08:28:09.295Z,2.10
2023-02-11T08:30:56.440Z,2.10
2023-02-11T08:33:43.754Z,2.43
2023-02-11T08:36:32.684Z,3.03
2023-02-11T08:39:21.809Z,2.57
2023-02-11T08:42:08.872Z,3.07
2023-02-11T08:44:57.545Z,3.10
2023-02-11T08:47:43.976Z,2.63
2023-02-11T08:50:32.366Z,2.53
2023-02-11T08:53:19.434Z,3.00
2023-02-11T08:56:07.445Z,1.80
2023-02-11T08:58:54.334Z,1.90
2023-02-11T09:01:44.264Z,2.10
2023-02-11T09:04:31.236Z,2.20
2023-02-11T09:07:17.813Z,2.57
2023-02-11T09:10:04.494Z,2.30
2023-02-11T09:12:51.788Z,1.83
2023-02-11T09:15:38.233Z,1.87
2023-02-11T09:18:26.910Z,1.67
2023-02-11T09:21:14.037Z,1.70
2023-02-11T09:24:01.027Z,2.60
2023-02-11T09:26:47.635Z,1.80
2023-02-11T09:29:34.923Z,3.17
2023-02-11T09:32:21.769Z,2.83
2023-02-11T09:35:09.934Z,2.60
2023-02-11T09:37:56.800Z,2.40
2023-02-11T09:40:44.761Z,2.07
2023-02-11T09:43:37.094Z,1.83
2023-02-11T09:46:27.224Z,1.97
2023-02-11T09:49:20.812Z,2.10
2023-02-11T09:52:28.668Z,1.90
2023-02-11T09:55:24.149Z,2.10
2023-02-11T09:58:15.869Z,2.13
2023-02-11T10:01:09.344Z,1.90
2023-02-11T10:04:05.260Z,1.73
2023-02-11T10:06:55.561Z,2.10
2023-02-11T10:09:55.312Z,3.22
2023-02-11T10:13:03.176Z,1.60
2023-02-11T10:15:59.808Z,2.55
2023-02-11T10:19:14.861Z,2.80
2023-02-11T10:22:10.179Z,2.53
2023-02-11T10:25:00.902Z,2.30
2023-02-11T10:27:47.914Z,2.42
2023-02-11T10:30:39.943Z,3.00
2023-02-11T10:33:30.476Z,2.60
2023-02-11T10:36:19.044Z,2.58
2023-02-11T10:39:13.344Z,2.80
2023-02-11T10:42:08.774Z,2.20
2023-02-11T10:45:01.689Z,2.35
2023-02-11T10:47:48.776Z,3.00
2023-02-11T10:50:37.072Z,2.95
2023-02-11T10:53:24.504Z,2.50
2023-02-11T10:56:15.490Z,4.20
2023-02-11T10:59:08.457Z,3.28
2023-02-11T11:02:00.686Z,3.53
2023-02-11T11:04:48.534Z,3.28
2023-02-11T11:07:35.759Z,3.30
2023-02-11T11:10:43.406Z,3.63
2023-02-11T11:13:33.380Z,3.05
2023-02-11T11:16:26.909Z,3.50
2023-02-11T11:19:22.984Z,2.90
2023-02-11T11:22:22.351Z,3.20
2023-02-11T11:25:27.084Z,2.53
2023-02-11T11:28:23.952Z,2.42
2023-02-11T11:31:16.180Z,2.78
2023-02-11T11:34:16.754Z,2.47
2023-02-11T11:37:12.333Z,2.75
2023-02-11T11:40:03.571Z,3.03
2023-02-11T11:43:05.811Z,3.00
2023-02-11T11:45:58.295Z,3.10
2023-02-11T11:48:50.872Z,2.63
2023-02-11T11:51:41.473Z,2.47
2023-02-11T11:54:29.928Z,2.58
2023-02-11T11:57:20.416Z,3.03
2023-02-11T12:00:15.396Z,2.58
2023-02-11T12:03:28.558Z,2.78
2023-02-11T12:06:26.008Z,2.35
2023-02-11T12:09:24.040Z,2.50
2023-02-11T12:12:24.073Z,2.05
2023-02-11T12:15:24.963Z,2.40
2023-02-11T12:18:25.819Z,2.33
2023-02-11T12:21:34.230Z,2.10
2023-02-11T12:24:38.223Z,2.00
2023-02-11T12:27:39.202Z,2.05
2023-02-11T12:30:42.934Z,2.35
2023-02-11T12:33:46.234Z,2.30
2023-02-11T12:36:54.376Z,2.25
2023-02-11T12:39:50.350Z,2.20
2023-02-11T12:43:10.107Z,2.10
2023-02-11T12:46:35.477Z,1.90
2023-02-11T12:49:41.178Z,2.13
2023-02-11T12:52:42.218Z,1.90
2023-02-11T12:55:37.026Z,2.97
2023-02-11T12:58:35.662Z,2.08
2023-02-11T13:01:41.180Z,2.20
2023-02-11T13:07:17.440Z,1.73
2023-02-11T13:10:10.456Z,1.85
2023-02-11T13:13:18.531Z,2.38
2023-02-11T13:16:07.998Z,1.77
2023-02-11T13:19:01.700Z,1.67
2023-02-11T13:22:01.972Z,1.73
2023-02-11T13:24:53.287Z,1.60
2023-02-11T13:27:45.847Z,1.80
2023-02-11T13:30:36.647Z,1.77
2023-02-11T13:33:34.091Z,2.00
2023-02-11T13:36:24.295Z,2.10
2023-02-11T13:39:22.376Z,1.88
2023-02-11T13:42:18.092Z,1.90
2023-02-11T13:45:17.646Z,1.40
2023-02-11T13:48:08.302Z,2.33
2023-02-11T13:50:57.875Z,2.03
2023-02-11T13:53:51.094Z,2.33
2023-02-11T13:56:40.568Z,2.10
2023-02-11T13:59:48.507Z,1.63
2023-02-11T14:02:54.990Z,1.93
2023-02-11T14:06:31.394Z,1.90
2023-02-11T14:09:40.121Z,1.57
2023-02-11T14:12:36.014Z,1.77
2023-02-11T14:15:27.620Z,1.50
2023-02-11T14:18:39.492Z,1.30
2023-02-11T14:21:34.170Z,1.80
2023-02-11T14:24:48.466Z,1.73
2023-02-11T14:27:41.841Z,1.73
2023-02-11T14:30:44.388Z,1.67
2023-02-11T14:33:56.461Z,1.90
2023-02-11T14:37:00.087Z,1.53
2023-02-11T14:39:59.310Z,1.30
2023-02-11T14:42:46.718Z,1.50
2023-02-11T14:45:37.973Z,1.30
2023-02-11T14:48:31.325Z,1.80
2023-02-11T14:51:23.594Z,1.47
2023-02-11T14:54:17.671Z,1.67
2023-02-11T14:57:11.217Z,1.80
2023-02-11T15:00:18.806Z,1.13
2023-02-11T15:03:05.962Z,1.70
2023-02-11T15:05:57.746Z,1.50
2023-02-11T15:08:48.349Z,1.30
2023-02-11T15:11:39.469Z,1.30
2023-02-11T15:14:28.472Z,0.90
2023-02-11T15:17:20.036Z,1.40
2023-02-11T15:20:09.022Z,0.93
2023-02-11T15:22:59.753Z,1.47
2023-02-11T15:25:52.775Z,1.07
2023-02-11T15:28:39.693Z,1.43
2023-02-11T15:31:29.596Z,1.20
2023-02-11T15:34:18.740Z,1.20
2023-02-11T15:37:05.950Z,1.20
2023-02-11T15:39:53.894Z,1.33
2023-02-11T15:42:52.623Z,1.07
2023-02-11T15:45:42.647Z,1.50
2023-02-11T15:48:38.350Z,1.87
2023-02-11T15:51:31.333Z,1.90
2023-02-11T15:54:21.609Z,2.70
2023-02-11T15:57:11.219Z,1.80
2023-02-11T15:59:59.113Z,3.87
2023-02-11T16:02:48.695Z,3.43
2023-02-11T16:05:37.476Z,4.13
2023-02-11T16:08:29.842Z,3.90
2023-02-11T16:11:25.620Z,4.83
2023-02-11T16:14:24.108Z,4.80
2023-02-11T16:17:14.365Z,4.17
2023-02-11T16:20:01.661Z,4.40
2023-02-11T16:22:49.233Z,4.37
2023-02-11T16:25:38.579Z,5.50
2023-02-11T16:28:25.652Z,4.43
2023-02-11T16:31:16.478Z,4.67
2023-02-11T16:34:03.633Z,4.67
2023-02-11T16:36:52.083Z,5.00
2023-02-11T16:39:39.183Z,4.03
2023-02-11T16:42:27.476Z,3.17
2023-02-11T16:45:15.450Z,4.17
2023-02-11T16:48:02.361Z,3.50
2023-02-11T16:50:53.387Z,4.10
2023-02-11T16:53:40.793Z,4.13
2023-02-11T16:56:27.714Z,4.57
2023-02-11T16:59:16.283Z,4.57
2023-02-11T17:02:03.293Z,4.73
2023-02-11T17:04:50.201Z,4.07
2023-02-11T17:07:37.404Z,4.27
2023-02-11T17:10:25.522Z,4.40
2023-02-11T17:13:12.469Z,3.87
2023-02-11T17:16:00.551Z,5.20
2023-02-11T17:18:48.340Z,4.93
2023-02-11T17:21:35.054Z,3.83
2023-02-11T17:24:23.433Z,4.37
2023-02-11T17:27:12.416Z,4.53
2023-02-11T17:29:59.595Z,3.87
2023-02-11T17:32:48.388Z,5.37
2023-02-11T17:35:34.892Z,4.13
2023-02-11T17:38:21.395Z,4.77
2023-02-11T17:41:08.340Z,4.13
2023-02-11T17:43:58.469Z,3.80
2023-02-11T17:46:45.616Z,4.67
2023-02-11T17:49:34.049Z,3.87
2023-02-11T17:52:21.618Z,4.73
2023-02-11T17:55:09.010Z,4.67
2023-02-11T17:57:55.663Z,4.73
2023-02-11T18:00:43.487Z,3.90
2023-02-11T18:03:30.830Z,3.77
2023-02-11T18:06:19.456Z,4.43
2023-02-11T18:09:07.452Z,3.83
2023-02-11T18:11:54.646Z,4.37
2023-02-11T18:14:42.016Z,3.77
2023-02-11T18:17:29.078Z,4.57
2023-02-11T18:20:16.134Z,4.27
2023-02-11T18:23:04.955Z,5.03
2023-02-11T18:25:52.159Z,3.93
2023-02-11T18:28:40.036Z,3.80
2023-02-11T18:31:27.881Z,3.53
2023-02-11T18:34:15.887Z,3.73
2023-02-11T18:37:02.841Z,4.20
2023-02-11T18:39:51.268Z,3.20
2023-02-11T18:42:38.587Z,3.40
2023-02-11T18:45:28.588Z,4.03
2023-02-11T18:48:15.860Z,5.53
2023-02-11T18:51:03.015Z,5.87
2023-02-11T18:53:49.726Z,5.27
2023-02-11T18:56:38.015Z,4.97
2023-02-11T18:59:25.126Z,4.50
2023-02-11T19:02:12.510Z,5.53
2023-02-11T19:05:00.467Z,4.17
2023-02-11T19:07:47.771Z,4.90
2023-02-11T19:10:34.460Z,3.37
2023-02-11T19:13:22.495Z,4.33
2023-02-11T19:16:11.640Z,5.33
2023-02-11T19:18:58.716Z,3.50
2023-02-11T19:21:47.636Z,3.37
2023-02-11T19:24:34.978Z,3.80
2023-02-11T19:27:22.082Z,4.03
2023-02-11T19:30:11.689Z,4.17
2023-02-11T19:32:58.436Z,2.27
2023-02-11T19:35:45.483Z,3.90
2023-02-11T19:38:32.457Z,4.77
2023-02-11T19:41:23.114Z,4.07
2023-02-11T19:44:10.554Z,2.17
2023-02-11T19:46:59.972Z,2.17
2023-02-11T19:49:47.026Z,2.53
2023-02-11T19:52:34.465Z,3.20
2023-02-11T19:55:21.519Z,3.07
2023-02-11T19:58:08.124Z,2.70
2023-02-11T20:00:55.456Z,3.13
2023-02-11T20:03:43.928Z,2.50
2023-02-11T20:06:32.685Z,3.50
2023-02-11T20:09:19.707Z,2.87
2023-02-11T20:12:06.965Z,3.27
2023-02-11T20:14:53.746Z,2.87
2023-02-11T20:17:40.423Z,3.73
2023-02-11T20:20:29.082Z,2.97
2023-02-11T20:23:15.733Z,4.10
2023-02-11T20:26:07.370Z,3.10
2023-02-11T20:28:58.031Z,3.30
2023-02-11T20:31:45.493Z,3.07
2023-02-11T20:34:33.241Z,3.00
2023-02-11T20:37:21.670Z,2.57
2023-02-11T20:40:09.797Z,2.87
2023-02-11T20:42:56.785Z,3.07
2023-02-11T20:45:43.953Z,3.60
2023-02-11T20:48:30.962Z,2.93
2023-02-11T20:51:20.585Z,2.77
2023-02-11T20:54:12.563Z,3.30
2023-02-11T20:56:59.798Z,2.40
2023-02-11T20:59:46.709Z,3.13
2023-02-11T21:02:33.617Z,2.60
2023-02-11T21:05:20.746Z,2.70
2023-02-11T21:08:07.994Z,3.03
2023-02-11T21:10:56.616Z,3.03
2023-02-11T21:13:44.969Z,2.60
2023-02-11T21:16:33.006Z,3.27
2023-02-11T21:19:20.363Z,2.07
2023-02-11T21:22:07.467Z,2.63
2023-02-11T21:24:54.678Z,2.27
2023-02-11T21:27:43.014Z,2.70
2023-02-11T21:30:30.376Z,2.47
2023-02-11T21:33:17.234Z,2.67
2023-02-11T21:36:07.769Z,2.20
2023-02-11T21:38:55.039Z,2.20
2023-02-11T21:41:42.355Z,2.40
2023-02-11T21:44:32.054Z,2.00
2023-02-11T21:47:19.100Z,1.70
2023-02-11T21:50:07.257Z,2.13
2023-02-11T21:52:54.273Z,1.90
2023-02-11T21:55:41.872Z,1.90
2023-02-11T21:58:28.483Z,2.07
2023-02-11T22:01:19.078Z,1.93
2023-02-11T22:04:06.391Z,1.90
2023-02-11T22:06:53.413Z,2.20
2023-02-11T22:09:40.579Z,2.57
2023-02-11T22:12:27.582Z,1.63
2023-02-11T22:15:14.787Z,2.63
2023-02-11T22:18:03.340Z,2.30
2023-02-11T22:20:59.701Z,1.83
2023-02-11T22:23:47.053Z,1.70
2023-02-11T22:26:33.984Z,1.93
2023-02-11T22:29:20.881Z,1.53
2023-02-11T22:32:08.105Z,2.90
2023-02-11T22:34:59.032Z,3.60
2023-02-11T22:37:45.976Z,2.60
2023-02-11T22:40:33.074Z,2.87
2023-02-11T22:43:20.139Z,2.37
2023-02-11T22:46:09.468Z,2.33
2023-02-11T22:48:56.325Z,2.53
2023-02-11T22:51:44.796Z,2.10
2023-02-11T22:54:32.240Z,2.13
2023-02-11T22:57:19.424Z,2.33
2023-02-11T23:00:09.949Z,2.40
2023-02-11T23:02:57.569Z,2.17
2023-02-11T23:05:44.589Z,1.90
2023-02-11T23:08:33.865Z,2.70
2023-02-11T23:11:22.583Z,1.87
2023-02-11T23:14:12.017Z,2.40
2023-02-11T23:16:59.041Z,2.33
2023-02-11T23:19:45.977Z,2.13
2023-02-11T23:22:32.726Z,2.30
2023-02-11T23:25:21.077Z,1.83
2023-02-11T23:28:08.479Z,2.20
2023-02-11T23:30:55.512Z,2.57
2023-02-11T23:33:42.452Z,2.60
2023-02-11T23:36:30.015Z,2.07
2023-02-11T23:39:17.952Z,2.20
2023-02-11T23:42:06.677Z,2.20
2023-02-11T23:44:53.348Z,2.70
2023-02-11T23:47:41.780Z,3.07
2023-02-11T23:50:28.632Z,1.80
2023-02-11T23:53:15.703Z,2.50
2023-02-11T23:56:06.782Z,2.70
2023-02-11T23:58:58.258Z,2.07
